sensor_id;sensor_type;location;lat;lon;timestamp;temperature;humidity
37956;DHT22;23776;51.592;7.180;2023-07-29T00:02:17;19.20;46.00
37956;DHT22;23776;51.592;7.180;2023-07-29T00:04:43;19.20;45.60
37956;DHT22;23776;51.592;7.180;2023-07-29T00:07:08;19.20;45.80
37956;DHT22;23776;51.592;7.180;2023-07-29T00:09:34;19.20;46.10
37956;DHT22;23776;51.592;7.180;2023-07-29T00:11:59;19.20;45.20
37956;DHT22;23776;51.592;7.180;2023-07-29T00:14:25;19.00;45.20
37956;DHT22;23776;51.592;7.180;2023-07-29T00:16:51;19.00;46.60
37956;DHT22;23776;51.592;7.180;2023-07-29T00:19:16;19.00;46.90
37956;DHT22;23776;51.592;7.180;2023-07-29T00:21:42;19.00;47.20
37956;DHT22;23776;51.592;7.180;2023-07-29T00:24:07;18.90;49.30
37956;DHT22;23776;51.592;7.180;2023-07-29T00:26:33;16.80;49.10
37956;DHT22;23776;51.592;7.180;2023-07-29T00:28:58;18.90;50.70
37956;DHT22;23776;51.592;7.180;2023-07-29T00:31:24;18.80;52.30
37956;DHT22;23776;51.592;7.180;2023-07-29T00:33:50;18.80;52.60
37956;DHT22;23776;51.592;7.180;2023-07-29T00:36:16;18.90;54.20
37956;DHT22;23776;51.592;7.180;2023-07-29T00:38:41;18.80;54.00
37956;DHT22;23776;51.592;7.180;2023-07-29T00:41:07;18.80;55.60
37956;DHT22;23776;51.592;7.180;2023-07-29T00:43:33;18.90;55.50
37956;DHT22;23776;51.592;7.180;2023-07-29T00:46:00;18.90;55.50
37956;DHT22;23776;51.592;7.180;2023-07-29T00:48:26;18.90;56.10
37956;DHT22;23776;51.592;7.180;2023-07-29T00:50:51;18.90;55.30
37956;DHT22;23776;51.592;7.180;2023-07-29T00:53:17;18.90;56.10
37956;DHT22;23776;51.592;7.180;2023-07-29T00:55:43;18.90;56.50
37956;DHT22;23776;51.592;7.180;2023-07-29T00:58:10;18.90;56.40
37956;DHT22;23776;51.592;7.180;2023-07-29T01:00:35;18.90;56.80
37956;DHT22;23776;51.592;7.180;2023-07-29T01:03:01;18.90;56.50
37956;DHT22;23776;51.592;7.180;2023-07-29T01:05:32;18.90;57.00
37956;DHT22;23776;51.592;7.180;2023-07-29T01:08:31;18.80;56.40
37956;DHT22;23776;51.592;7.180;2023-07-29T01:11:03;18.80;56.70
37956;DHT22;23776;51.592;7.180;2023-07-29T01:13:43;18.80;57.40
37956;DHT22;23776;51.592;7.180;2023-07-29T01:16:26;18.80;58.30
37956;DHT22;23776;51.592;7.180;2023-07-29T01:18:56;18.80;59.00
37956;DHT22;23776;51.592;7.180;2023-07-29T01:21:26;18.80;59.70
37956;DHT22;23776;51.592;7.180;2023-07-29T01:23:52;18.80;58.90
37956;DHT22;23776;51.592;7.180;2023-07-29T01:26:18;18.80;59.40
37956;DHT22;23776;51.592;7.180;2023-07-29T01:28:44;18.80;59.80
37956;DHT22;23776;51.592;7.180;2023-07-29T01:31:34;18.80;60.70
37956;DHT22;23776;51.592;7.180;2023-07-29T01:34:06;18.90;59.50
37956;DHT22;23776;51.592;7.180;2023-07-29T01:36:37;19.00;58.80
37956;DHT22;23776;51.592;7.180;2023-07-29T01:39:06;19.00;58.20
37956;DHT22;23776;51.592;7.180;2023-07-29T01:41:33;19.00;58.60
37956;DHT22;23776;51.592;7.180;2023-07-29T01:43:59;19.00;59.10
37956;DHT22;23776;51.592;7.180;2023-07-29T01:46:25;19.10;58.10
37956;DHT22;23776;51.592;7.180;2023-07-29T01:48:51;19.10;58.40
37956;DHT22;23776;51.592;7.180;2023-07-29T01:51:16;19.10;57.70
37956;DHT22;23776;51.592;7.180;2023-07-29T01:53:42;19.20;58.20
37956;DHT22;23776;51.592;7.180;2023-07-29T01:56:07;19.20;56.80
37956;DHT22;23776;51.592;7.180;2023-07-29T01:58:33;19.20;56.80
37956;DHT22;23776;51.592;7.180;2023-07-29T02:00:59;19.20;57.80
37956;DHT22;23776;51.592;7.180;2023-07-29T02:03:24;19.20;57.60
37956;DHT22;23776;51.592;7.180;2023-07-29T02:05:50;19.20;56.90
37956;DHT22;23776;51.592;7.180;2023-07-29T02:08:15;19.20;55.50
37956;DHT22;23776;51.592;7.180;2023-07-29T02:10:41;19.20;55.60
37956;DHT22;23776;51.592;7.180;2023-07-29T02:13:10;19.20;55.90
37956;DHT22;23776;51.592;7.180;2023-07-29T02:15:36;19.20;56.40
37956;DHT22;23776;51.592;7.180;2023-07-29T02:18:01;19.20;55.80
37956;DHT22;23776;51.592;7.180;2023-07-29T02:20:28;20.60;57.50
37956;DHT22;23776;51.592;7.180;2023-07-29T02:22:54;19.20;56.20
37956;DHT22;23776;51.592;7.180;2023-07-29T02:25:19;19.20;55.20
37956;DHT22;23776;51.592;7.180;2023-07-29T02:27:45;19.20;54.80
37956;DHT22;23776;51.592;7.180;2023-07-29T02:30:11;19.20;56.60
37956;DHT22;23776;51.592;7.180;2023-07-29T02:32:37;19.20;55.80
37956;DHT22;23776;51.592;7.180;2023-07-29T02:35:03;19.20;56.20
37956;DHT22;23776;51.592;7.180;2023-07-29T02:37:30;19.20;55.90
37956;DHT22;23776;51.592;7.180;2023-07-29T02:39:55;19.20;56.20
37956;DHT22;23776;51.592;7.180;2023-07-29T02:42:21;19.20;55.80
37956;DHT22;23776;51.592;7.180;2023-07-29T02:44:47;19.20;56.20
37956;DHT22;23776;51.592;7.180;2023-07-29T02:47:12;19.20;56.90
37956;DHT22;23776;51.592;7.180;2023-07-29T02:49:38;19.10;56.90
37956;DHT22;23776;51.592;7.180;2023-07-29T02:52:03;19.10;58.00
37956;DHT22;23776;51.592;7.180;2023-07-29T02:54:29;19.00;58.00
37956;DHT22;23776;51.592;7.180;2023-07-29T02:56:55;19.00;59.20
37956;DHT22;23776;51.592;7.180;2023-07-29T02:59:20;19.00;59.60
37956;DHT22;23776;51.592;7.180;2023-07-29T03:01:46;19.00;60.20
37956;DHT22;23776;51.592;7.180;2023-07-29T03:04:12;18.90;60.10
37956;DHT22;23776;51.592;7.180;2023-07-29T03:06:38;18.80;60.20
37956;DHT22;23776;51.592;7.180;2023-07-29T03:09:04;18.80;61.30
37956;DHT22;23776;51.592;7.180;2023-07-29T03:11:30;18.80;62.20
37956;DHT22;23776;51.592;7.180;2023-07-29T03:13:56;18.80;62.60
37956;DHT22;23776;51.592;7.180;2023-07-29T03:16:22;18.80;62.20
37956;DHT22;23776;51.592;7.180;2023-07-29T03:18:48;18.70;62.20
37956;DHT22;23776;51.592;7.180;2023-07-29T03:21:14;18.70;62.60
37956;DHT22;23776;51.592;7.180;2023-07-29T03:23:40;18.80;63.00
37956;DHT22;23776;51.592;7.180;2023-07-29T03:26:05;18.80;62.20
37956;DHT22;23776;51.592;7.180;2023-07-29T03:28:40;18.90;62.00
37956;DHT22;23776;51.592;7.180;2023-07-29T03:31:06;18.90;61.50
37956;DHT22;23776;51.592;7.180;2023-07-29T03:33:32;18.90;61.70
37956;DHT22;23776;51.592;7.180;2023-07-29T03:35:58;18.90;62.00
37956;DHT22;23776;51.592;7.180;2023-07-29T03:38:24;18.90;61.20
37956;DHT22;23776;51.592;7.180;2023-07-29T03:40:50;18.80;61.60
37956;DHT22;23776;51.592;7.180;2023-07-29T03:43:16;18.90;61.80
37956;DHT22;23776;51.592;7.180;2023-07-29T03:45:41;18.80;62.00
37956;DHT22;23776;51.592;7.180;2023-07-29T03:48:07;18.90;62.10
37956;DHT22;23776;51.592;7.180;2023-07-29T03:50:34;18.80;61.70
37956;DHT22;23776;51.592;7.180;2023-07-29T03:53:02;18.80;62.20
37956;DHT22;23776;51.592;7.180;2023-07-29T03:55:27;18.80;62.50
37956;DHT22;23776;51.592;7.180;2023-07-29T03:57:56;18.80;62.70
37956;DHT22;23776;51.592;7.180;2023-07-29T04:00:21;18.80;63.70
37956;DHT22;23776;51.592;7.180;2023-07-29T04:02:47;18.80;63.90
37956;DHT22;23776;51.592;7.180;2023-07-29T04:05:13;18.90;63.70
37956;DHT22;23776;51.592;7.180;2023-07-29T04:07:38;18.90;62.80
37956;DHT22;23776;51.592;7.180;2023-07-29T04:10:05;18.90;62.50
37956;DHT22;23776;51.592;7.180;2023-07-29T04:12:31;18.90;62.90
37956;DHT22;23776;51.592;7.180;2023-07-29T04:14:57;18.80;62.70
37956;DHT22;23776;51.592;7.180;2023-07-29T04:17:22;18.90;62.80
37956;DHT22;23776;51.592;7.180;2023-07-29T04:19:48;18.90;63.20
37956;DHT22;23776;51.592;7.180;2023-07-29T04:22:15;18.90;62.40
37956;DHT22;23776;51.592;7.180;2023-07-29T04:24:40;18.90;63.00
37956;DHT22;23776;51.592;7.180;2023-07-29T04:27:06;18.80;63.00
37956;DHT22;23776;51.592;7.180;2023-07-29T04:29:31;19.00;63.20
37956;DHT22;23776;51.592;7.180;2023-07-29T04:31:57;18.90;63.30
37956;DHT22;23776;51.592;7.180;2023-07-29T04:34:23;18.90;63.20
37956;DHT22;23776;51.592;7.180;2023-07-29T04:36:48;19.00;63.10
37956;DHT22;23776;51.592;7.180;2023-07-29T04:39:14;19.00;63.50
37956;DHT22;23776;51.592;7.180;2023-07-29T04:41:40;19.00;62.70
37956;DHT22;23776;51.592;7.180;2023-07-29T04:44:05;19.00;62.60
37956;DHT22;23776;51.592;7.180;2023-07-29T04:46:31;19.00;62.60
37956;DHT22;23776;51.592;7.180;2023-07-29T04:48:56;19.00;62.20
37956;DHT22;23776;51.592;7.180;2023-07-29T04:51:22;19.00;62.30
37956;DHT22;23776;51.592;7.180;2023-07-29T04:53:48;19.00;61.90
37956;DHT22;23776;51.592;7.180;2023-07-29T04:56:14;19.10;61.90
37956;DHT22;23776;51.592;7.180;2023-07-29T04:58:39;19.00;61.70
37956;DHT22;23776;51.592;7.180;2023-07-29T05:01:05;19.00;61.60
37956;DHT22;23776;51.592;7.180;2023-07-29T05:03:31;18.90;60.50
37956;DHT22;23776;51.592;7.180;2023-07-29T05:05:58;18.80;59.80
37956;DHT22;23776;51.592;7.180;2023-07-29T05:08:27;18.80;59.10
37956;DHT22;23776;51.592;7.180;2023-07-29T05:10:53;18.60;58.00
37956;DHT22;23776;51.592;7.180;2023-07-29T05:13:19;18.70;59.20
37956;DHT22;23776;51.592;7.180;2023-07-29T05:15:47;20.80;58.70
37956;DHT22;23776;51.592;7.180;2023-07-29T05:18:13;18.60;58.40
37956;DHT22;23776;51.592;7.180;2023-07-29T05:20:39;18.70;58.90
37956;DHT22;23776;51.592;7.180;2023-07-29T05:23:04;18.70;57.40
37956;DHT22;23776;51.592;7.180;2023-07-29T05:25:30;18.70;55.90
37956;DHT22;23776;51.592;7.180;2023-07-29T05:27:56;18.80;51.10
37956;DHT22;23776;51.592;7.180;2023-07-29T05:30:22;18.80;51.60
37956;DHT22;23776;51.592;7.180;2023-07-29T05:32:48;18.90;52.00
37956;DHT22;23776;51.592;7.180;2023-07-29T05:35:14;19.00;50.80
37956;DHT22;23776;51.592;7.180;2023-07-29T05:37:40;19.00;43.10
37956;DHT22;23776;51.592;7.180;2023-07-29T05:40:07;19.00;28.60
37956;DHT22;23776;51.592;7.180;2023-07-29T05:42:33;19.00;23.40
37956;DHT22;23776;51.592;7.180;2023-07-29T05:44:58;19.00;22.90
37956;DHT22;23776;51.592;7.180;2023-07-29T05:47:24;18.90;12.60
37956;DHT22;23776;51.592;7.180;2023-07-29T05:49:50;18.90;18.80
37956;DHT22;23776;51.592;7.180;2023-07-29T05:54:42;18.80;10.90
37956;DHT22;23776;51.592;7.180;2023-07-29T05:57:11;18.70;1.00
37956;DHT22;23776;51.592;7.180;2023-07-29T05:59:38;18.80;1.00
37956;DHT22;23776;51.592;7.180;2023-07-29T06:02:04;18.80;1.00
37956;DHT22;23776;51.592;7.180;2023-07-29T06:04:30;18.90;1.00
37956;DHT22;23776;51.592;7.180;2023-07-29T06:06:55;18.70;1.00
37956;DHT22;23776;51.592;7.180;2023-07-29T06:09:22;18.60;1.00
37956;DHT22;23776;51.592;7.180;2023-07-29T06:11:48;18.60;1.00
37956;DHT22;23776;51.592;7.180;2023-07-29T06:14:13;18.60;1.00
37956;DHT22;23776;51.592;7.180;2023-07-29T06:16:39;18.50;1.00
37956;DHT22;23776;51.592;7.180;2023-07-29T06:19:05;18.40;1.00
37956;DHT22;23776;51.592;7.180;2023-07-29T06:21:31;18.40;1.00
37956;DHT22;23776;51.592;7.180;2023-07-29T06:23:56;18.40;1.00
37956;DHT22;23776;51.592;7.180;2023-07-29T06:26:22;18.50;1.00
37956;DHT22;23776;51.592;7.180;2023-07-29T06:28:47;18.50;1.00
37956;DHT22;23776;51.592;7.180;2023-07-29T06:31:13;18.60;1.00
37956;DHT22;23776;51.592;7.180;2023-07-29T06:33:39;18.50;1.00
37956;DHT22;23776;51.592;7.180;2023-07-29T06:36:04;18.40;1.00
37956;DHT22;23776;51.592;7.180;2023-07-29T06:38:30;18.50;1.00
37956;DHT22;23776;51.592;7.180;2023-07-29T06:40:56;18.50;99.90
37956;DHT22;23776;51.592;7.180;2023-07-29T06:43:21;18.50;99.90
37956;DHT22;23776;51.592;7.180;2023-07-29T06:45:47;18.50;99.90
37956;DHT22;23776;51.592;7.180;2023-07-29T06:48:13;18.60;99.90
37956;DHT22;23776;51.592;7.180;2023-07-29T06:50:38;18.60;99.90
37956;DHT22;23776;51.592;7.180;2023-07-29T06:53:04;18.60;99.90
37956;DHT22;23776;51.592;7.180;2023-07-29T06:55:30;18.80;99.90
37956;DHT22;23776;51.592;7.180;2023-07-29T06:57:55;18.80;99.90
37956;DHT22;23776;51.592;7.180;2023-07-29T07:00:21;18.90;99.90
37956;DHT22;23776;51.592;7.180;2023-07-29T07:02:46;19.00;99.90
37956;DHT22;23776;51.592;7.180;2023-07-29T07:05:12;19.00;99.90
37956;DHT22;23776;51.592;7.180;2023-07-29T07:07:37;19.00;99.90
37956;DHT22;23776;51.592;7.180;2023-07-29T07:10:03;18.80;99.90
37956;DHT22;23776;51.592;7.180;2023-07-29T07:12:29;18.70;99.90
37956;DHT22;23776;51.592;7.180;2023-07-29T07:14:55;18.70;99.90
37956;DHT22;23776;51.592;7.180;2023-07-29T07:17:20;18.50;99.90
37956;DHT22;23776;51.592;7.180;2023-07-29T07:19:46;18.50;99.90
37956;DHT22;23776;51.592;7.180;2023-07-29T07:22:12;18.50;99.90
37956;DHT22;23776;51.592;7.180;2023-07-29T07:24:37;18.70;99.90
37956;DHT22;23776;51.592;7.180;2023-07-29T07:27:03;18.90;99.90
37956;DHT22;23776;51.592;7.180;2023-07-29T07:29:29;18.90;99.90
37956;DHT22;23776;51.592;7.180;2023-07-29T07:31:56;19.00;99.90
37956;DHT22;23776;51.592;7.180;2023-07-29T07:34:21;19.10;99.90
37956;DHT22;23776;51.592;7.180;2023-07-29T07:36:47;19.30;99.90
37956;DHT22;23776;51.592;7.180;2023-07-29T07:39:13;19.40;99.90
37956;DHT22;23776;51.592;7.180;2023-07-29T07:41:39;19.50;99.90
37956;DHT22;23776;51.592;7.180;2023-07-29T07:44:04;19.70;1.00
37956;DHT22;23776;51.592;7.180;2023-07-29T07:46:30;19.70;99.90
37956;DHT22;23776;51.592;7.180;2023-07-29T07:48:55;19.70;99.90
37956;DHT22;23776;51.592;7.180;2023-07-29T07:51:21;19.80;99.90
37956;DHT22;23776;51.592;7.180;2023-07-29T07:53:46;19.90;99.90
37956;DHT22;23776;51.592;7.180;2023-07-29T07:56:12;19.90;90.70
37956;DHT22;23776;51.592;7.180;2023-07-29T07:58:38;19.90;99.90
37956;DHT22;23776;51.592;7.180;2023-07-29T08:01:05;20.00;1.00
37956;DHT22;23776;51.592;7.180;2023-07-29T08:03:31;20.00;1.00
37956;DHT22;23776;51.592;7.180;2023-07-29T08:05:57;19.90;1.00
37956;DHT22;23776;51.592;7.180;2023-07-29T08:08:22;20.00;99.90
37956;DHT22;23776;51.592;7.180;2023-07-29T08:10:48;20.10;99.90
37956;DHT22;23776;51.592;7.180;2023-07-29T08:13:13;20.10;99.90
37956;DHT22;23776;51.592;7.180;2023-07-29T08:15:39;20.20;1.00
37956;DHT22;23776;51.592;7.180;2023-07-29T08:18:06;20.20;99.90
37956;DHT22;23776;51.592;7.180;2023-07-29T08:20:32;20.20;1.00
37956;DHT22;23776;51.592;7.180;2023-07-29T08:22:58;20.20;28.10
37956;DHT22;23776;51.592;7.180;2023-07-29T08:25:23;20.20;1.00
37956;DHT22;23776;51.592;7.180;2023-07-29T08:27:49;20.20;99.90
37956;DHT22;23776;51.592;7.180;2023-07-29T08:30:15;20.20;99.90
37956;DHT22;23776;51.592;7.180;2023-07-29T08:32:41;20.30;99.90
37956;DHT22;23776;51.592;7.180;2023-07-29T08:35:07;20.40;99.90
37956;DHT22;23776;51.592;7.180;2023-07-29T08:37:33;20.40;1.00
37956;DHT22;23776;51.592;7.180;2023-07-29T08:39:59;20.40;99.90
37956;DHT22;23776;51.592;7.180;2023-07-29T08:42:29;20.40;1.00
37956;DHT22;23776;51.592;7.180;2023-07-29T08:45:06;20.50;99.90
37956;DHT22;23776;51.592;7.180;2023-07-29T08:47:33;23.00;1.00
37956;DHT22;23776;51.592;7.180;2023-07-29T08:49:59;20.80;99.90
37956;DHT22;23776;51.592;7.180;2023-07-29T08:52:26;20.90;60.80
37956;DHT22;23776;51.592;7.180;2023-07-29T08:54:52;21.10;1.00
37956;DHT22;23776;51.592;7.180;2023-07-29T08:57:20;21.40;99.90
37956;DHT22;23776;51.592;7.180;2023-07-29T08:59:46;21.60;99.90
37956;DHT22;23776;51.592;7.180;2023-07-29T09:02:11;21.70;99.90
37956;DHT22;23776;51.592;7.180;2023-07-29T09:04:37;22.00;99.90
37956;DHT22;23776;51.592;7.180;2023-07-29T09:07:03;22.10;1.00
37956;DHT22;23776;51.592;7.180;2023-07-29T09:09:29;22.10;1.00
37956;DHT22;23776;51.592;7.180;2023-07-29T09:11:55;22.20;99.90
37956;DHT22;23776;51.592;7.180;2023-07-29T09:14:21;22.20;1.00
37956;DHT22;23776;51.592;7.180;2023-07-29T09:16:47;22.10;99.90
37956;DHT22;23776;51.592;7.180;2023-07-29T09:19:12;22.20;99.90
37956;DHT22;23776;51.592;7.180;2023-07-29T09:21:39;22.30;99.90
37956;DHT22;23776;51.592;7.180;2023-07-29T09:24:05;22.40;99.90
37956;DHT22;23776;51.592;7.180;2023-07-29T09:26:33;22.40;99.90
37956;DHT22;23776;51.592;7.180;2023-07-29T09:28:59;22.40;99.90
37956;DHT22;23776;51.592;7.180;2023-07-29T09:31:26;22.30;99.90
37956;DHT22;23776;51.592;7.180;2023-07-29T09:34:00;22.60;99.90
37956;DHT22;23776;51.592;7.180;2023-07-29T09:36:27;22.70;60.60
37956;DHT22;23776;51.592;7.180;2023-07-29T09:38:57;22.70;72.70
37956;DHT22;23776;51.592;7.180;2023-07-29T09:41:27;22.20;68.90
37956;DHT22;23776;51.592;7.180;2023-07-29T09:43:57;22.70;22.90
37956;DHT22;23776;51.592;7.180;2023-07-29T09:46:24;22.80;1.00
37956;DHT22;23776;51.592;7.180;2023-07-29T09:48:53;22.80;1.00
37956;DHT22;23776;51.592;7.180;2023-07-29T09:51:19;22.70;1.00
37956;DHT22;23776;51.592;7.180;2023-07-29T09:53:46;22.70;45.30
37956;DHT22;23776;51.592;7.180;2023-07-29T09:56:14;22.80;49.00
37956;DHT22;23776;51.592;7.180;2023-07-29T09:58:40;22.90;14.30
37956;DHT22;23776;51.592;7.180;2023-07-29T10:01:08;22.90;40.80
37956;DHT22;23776;51.592;7.180;2023-07-29T10:03:34;22.90;95.00
37956;DHT22;23776;51.592;7.180;2023-07-29T10:06:05;22.80;99.90
37956;DHT22;23776;51.592;7.180;2023-07-29T10:08:32;22.40;45.60
37956;DHT22;23776;51.592;7.180;2023-07-29T10:11:02;22.20;99.90
37956;DHT22;23776;51.592;7.180;2023-07-29T10:13:28;22.10;99.90
37956;DHT22;23776;51.592;7.180;2023-07-29T10:15:54;22.20;1.00
37956;DHT22;23776;51.592;7.180;2023-07-29T10:18:22;22.00;51.40
37956;DHT22;23776;51.592;7.180;2023-07-29T10:20:51;22.30;43.00
37956;DHT22;23776;51.592;7.180;2023-07-29T10:23:18;22.30;1.00
37956;DHT22;23776;51.592;7.180;2023-07-29T10:25:49;22.30;1.00
37956;DHT22;23776;51.592;7.180;2023-07-29T10:28:17;22.70;1.00
37956;DHT22;23776;51.592;7.180;2023-07-29T10:30:44;22.80;99.90
37956;DHT22;23776;51.592;7.180;2023-07-29T10:33:10;23.00;99.90
37956;DHT22;23776;51.592;7.180;2023-07-29T10:35:37;23.10;99.90
37956;DHT22;23776;51.592;7.180;2023-07-29T10:38:03;23.50;99.90
37956;DHT22;23776;51.592;7.180;2023-07-29T10:40:47;23.70;1.00
37956;DHT22;23776;51.592;7.180;2023-07-29T10:43:31;23.90;1.00
37956;DHT22;23776;51.592;7.180;2023-07-29T10:45:58;24.10;1.00
37956;DHT22;23776;51.592;7.180;2023-07-29T10:48:41;24.20;99.90
37956;DHT22;23776;51.592;7.180;2023-07-29T10:51:27;24.30;99.90
37956;DHT22;23776;51.592;7.180;2023-07-29T10:54:01;24.60;99.90
37956;DHT22;23776;51.592;7.180;2023-07-29T10:56:31;24.40;1.00
37956;DHT22;23776;51.592;7.180;2023-07-29T11:01:50;24.30;59.40
37956;DHT22;23776;51.592;7.180;2023-07-29T11:15:25;24.60;85.40
37956;DHT22;23776;51.592;7.180;2023-07-29T11:17:52;24.70;90.30
37956;DHT22;23776;51.592;7.180;2023-07-29T11:20:20;24.70;1.00
37956;DHT22;23776;51.592;7.180;2023-07-29T11:22:46;24.90;1.00
37956;DHT22;23776;51.592;7.180;2023-07-29T11:25:14;25.00;1.00
37956;DHT22;23776;51.592;7.180;2023-07-29T11:27:40;25.20;1.00
37956;DHT22;23776;51.592;7.180;2023-07-29T11:30:08;25.40;1.00
37956;DHT22;23776;51.592;7.180;2023-07-29T11:32:35;25.40;1.00
37956;DHT22;23776;51.592;7.180;2023-07-29T11:35:12;25.20;1.00
37956;DHT22;23776;51.592;7.180;2023-07-29T11:37:40;24.80;1.00
37956;DHT22;23776;51.592;7.180;2023-07-29T11:40:06;24.60;1.00
37956;DHT22;23776;51.592;7.180;2023-07-29T11:42:34;24.30;1.00
37956;DHT22;23776;51.592;7.180;2023-07-29T11:45:00;24.40;94.70
37956;DHT22;23776;51.592;7.180;2023-07-29T11:47:26;24.60;1.00
37956;DHT22;23776;51.592;7.180;2023-07-29T11:49:53;24.60;1.00
37956;DHT22;23776;51.592;7.180;2023-07-29T11:52:19;24.60;1.00
37956;DHT22;23776;51.592;7.180;2023-07-29T11:54:48;24.40;1.00
37956;DHT22;23776;51.592;7.180;2023-07-29T11:57:16;24.10;36.00
37956;DHT22;23776;51.592;7.180;2023-07-29T11:59:42;24.00;41.90
37956;DHT22;23776;51.592;7.180;2023-07-29T12:02:21;23.70;99.90
37956;DHT22;23776;51.592;7.180;2023-07-29T12:04:48;23.40;99.90
37956;DHT22;23776;51.592;7.180;2023-07-29T12:07:17;23.90;99.90
37956;DHT22;23776;51.592;7.180;2023-07-29T12:09:45;24.10;99.90
37956;DHT22;23776;51.592;7.180;2023-07-29T12:12:11;26.60;99.90
37956;DHT22;23776;51.592;7.180;2023-07-29T12:14:36;24.90;26.90
37956;DHT22;23776;51.592;7.180;2023-07-29T12:17:04;25.40;1.00
37956;DHT22;23776;51.592;7.180;2023-07-29T12:19:34;25.50;1.00
37956;DHT22;23776;51.592;7.180;2023-07-29T12:22:01;26.00;1.00
37956;DHT22;23776;51.592;7.180;2023-07-29T12:24:27;26.30;1.00
37956;DHT22;23776;51.592;7.180;2023-07-29T12:26:52;27.50;99.90
37956;DHT22;23776;51.592;7.180;2023-07-29T12:29:19;27.60;99.90
37956;DHT22;23776;51.592;7.180;2023-07-29T12:31:45;27.60;99.90
37956;DHT22;23776;51.592;7.180;2023-07-29T12:34:20;27.60;99.90
37956;DHT22;23776;51.592;7.180;2023-07-29T12:36:49;27.40;99.90
37956;DHT22;23776;51.592;7.180;2023-07-29T12:39:27;27.30;99.90
37956;DHT22;23776;51.592;7.180;2023-07-29T12:41:54;26.20;99.90
37956;DHT22;23776;51.592;7.180;2023-07-29T12:44:21;25.50;99.90
37956;DHT22;23776;51.592;7.180;2023-07-29T12:46:48;25.00;1.00
37956;DHT22;23776;51.592;7.180;2023-07-29T12:49:13;25.10;1.00
37956;DHT22;23776;51.592;7.180;2023-07-29T12:51:39;25.60;1.00
37956;DHT22;23776;51.592;7.180;2023-07-29T12:54:05;26.20;99.90
37956;DHT22;23776;51.592;7.180;2023-07-29T12:56:31;26.90;99.90
37956;DHT22;23776;51.592;7.180;2023-07-29T12:58:58;26.90;99.90
37956;DHT22;23776;51.592;7.180;2023-07-29T13:01:24;27.00;99.90
37956;DHT22;23776;51.592;7.180;2023-07-29T13:03:50;26.80;99.90
37956;DHT22;23776;51.592;7.180;2023-07-29T13:06:16;26.50;99.90
37956;DHT22;23776;51.592;7.180;2023-07-29T13:08:42;26.60;99.90
37956;DHT22;23776;51.592;7.180;2023-07-29T13:11:08;26.70;99.90
37956;DHT22;23776;51.592;7.180;2023-07-29T13:13:34;27.30;99.90
37956;DHT22;23776;51.592;7.180;2023-07-29T13:16:00;27.80;99.90
37956;DHT22;23776;51.592;7.180;2023-07-29T13:18:26;28.40;99.90
37956;DHT22;23776;51.592;7.180;2023-07-29T13:20:52;28.70;99.90
37956;DHT22;23776;51.592;7.180;2023-07-29T13:23:17;29.90;99.90
37956;DHT22;23776;51.592;7.180;2023-07-29T13:25:43;30.60;99.90
37956;DHT22;23776;51.592;7.180;2023-07-29T13:28:10;30.30;99.90
37956;DHT22;23776;51.592;7.180;2023-07-29T13:30:36;30.20;99.90
37956;DHT22;23776;51.592;7.180;2023-07-29T13:33:02;29.80;99.90
37956;DHT22;23776;51.592;7.180;2023-07-29T13:35:30;27.90;99.90
37956;DHT22;23776;51.592;7.180;2023-07-29T13:37:55;26.90;99.90
37956;DHT22;23776;51.592;7.180;2023-07-29T13:40:21;26.90;99.90
37956;DHT22;23776;51.592;7.180;2023-07-29T13:42:47;26.30;99.90
37956;DHT22;23776;51.592;7.180;2023-07-29T13:45:12;26.30;99.90
37956;DHT22;23776;51.592;7.180;2023-07-29T13:47:38;25.40;99.90
37956;DHT22;23776;51.592;7.180;2023-07-29T13:50:04;25.30;99.90
37956;DHT22;23776;51.592;7.180;2023-07-29T13:52:29;25.10;99.90
37956;DHT22;23776;51.592;7.180;2023-07-29T13:54:55;24.80;99.90
37956;DHT22;23776;51.592;7.180;2023-07-29T13:57:21;24.50;99.90
37956;DHT22;23776;51.592;7.180;2023-07-29T13:59:46;24.40;99.90
37956;DHT22;23776;51.592;7.180;2023-07-29T14:02:12;24.30;1.00
37956;DHT22;23776;51.592;7.180;2023-07-29T14:04:38;24.00;1.00
37956;DHT22;23776;51.592;7.180;2023-07-29T14:07:05;23.50;82.50
37956;DHT22;23776;51.592;7.180;2023-07-29T14:09:30;23.40;99.90
37956;DHT22;23776;51.592;7.180;2023-07-29T14:11:56;22.00;99.90
37956;DHT22;23776;51.592;7.180;2023-07-29T14:14:22;21.00;99.90
37956;DHT22;23776;51.592;7.180;2023-07-29T14:16:47;20.20;1.00
37956;DHT22;23776;51.592;7.180;2023-07-29T14:19:14;20.10;1.00
37956;DHT22;23776;51.592;7.180;2023-07-29T14:21:40;19.70;1.00
37956;DHT22;23776;51.592;7.180;2023-07-29T14:24:05;19.20;1.00
37956;DHT22;23776;51.592;7.180;2023-07-29T14:26:31;18.90;6.90
37956;DHT22;23776;51.592;7.180;2023-07-29T14:28:57;18.80;7.70
37956;DHT22;23776;51.592;7.180;2023-07-29T14:31:22;18.80;14.50
37956;DHT22;23776;51.592;7.180;2023-07-29T14:33:48;18.90;15.30
37956;DHT22;23776;51.592;7.180;2023-07-29T14:36:15;18.80;15.70
37956;DHT22;23776;51.592;7.180;2023-07-29T14:38:41;18.70;18.00
37956;DHT22;23776;51.592;7.180;2023-07-29T14:41:06;18.50;16.80
37956;DHT22;23776;51.592;7.180;2023-07-29T14:43:32;18.40;7.70
37956;DHT22;23776;51.592;7.180;2023-07-29T14:45:58;17.40;27.20
37956;DHT22;23776;51.592;7.180;2023-07-29T14:48:23;18.40;36.10
37956;DHT22;23776;51.592;7.180;2023-07-29T14:50:49;18.70;38.40
37956;DHT22;23776;51.592;7.180;2023-07-29T14:53:15;19.70;42.10
37956;DHT22;23776;51.592;7.180;2023-07-29T14:55:40;20.90;13.60
37956;DHT22;23776;51.592;7.180;2023-07-29T14:58:06;22.00;1.00
37956;DHT22;23776;51.592;7.180;2023-07-29T15:00:32;22.80;1.00
37956;DHT22;23776;51.592;7.180;2023-07-29T15:02:58;23.40;99.90
37956;DHT22;23776;51.592;7.180;2023-07-29T15:05:24;25.00;99.90
37956;DHT22;23776;51.592;7.180;2023-07-29T15:07:49;27.70;99.90
37956;DHT22;23776;51.592;7.180;2023-07-29T15:10:15;29.20;99.90
37956;DHT22;23776;51.592;7.180;2023-07-29T15:12:41;29.60;99.90
37956;DHT22;23776;51.592;7.180;2023-07-29T15:15:08;30.40;1.00
37956;DHT22;23776;51.592;7.180;2023-07-29T15:17:33;31.30;99.90
37956;DHT22;23776;51.592;7.180;2023-07-29T15:19:59;31.00;99.90
37956;DHT22;23776;51.592;7.180;2023-07-29T15:22:25;29.70;99.90
37956;DHT22;23776;51.592;7.180;2023-07-29T15:24:50;27.80;99.90
37956;DHT22;23776;51.592;7.180;2023-07-29T15:27:16;25.60;99.90
37956;DHT22;23776;51.592;7.180;2023-07-29T15:29:41;25.30;99.90
37956;DHT22;23776;51.592;7.180;2023-07-29T15:32:07;24.70;7.40
37956;DHT22;23776;51.592;7.180;2023-07-29T15:34:33;24.40;99.90
37956;DHT22;23776;51.592;7.180;2023-07-29T15:36:59;25.90;85.80
37956;DHT22;23776;51.592;7.180;2023-07-29T15:39:25;26.10;1.00
37956;DHT22;23776;51.592;7.180;2023-07-29T15:41:51;26.80;99.90
37956;DHT22;23776;51.592;7.180;2023-07-29T15:44:17;26.80;99.90
37956;DHT22;23776;51.592;7.180;2023-07-29T15:46:43;29.80;1.00
37956;DHT22;23776;51.592;7.180;2023-07-29T15:49:10;26.40;1.00